| time (UTC) | temp C | wind direction | speed KPH | gust KPH | rain 1hr cm | rain 24hr cm | rain mn cm | humidity % | barometer mb |
| 20260509002120 | 20 | 187 | 9.7 | 12.9 | 0.00 | 0.00 | 0.00 | 67 | 1007.3 |
| 20260509001618 | 20 | 166 | 4.8 | 4.8 | 0.00 | 0.00 | 0.00 | 68 | 1007.8 |
| 20260509001113 | 20 | 209 | 4.8 | 4.8 | 0.00 | 0.00 | 0.00 | 67 | 1008.4 |
| 20260509000612 | 20 | 217 | 8.0 | 11.3 | 0.00 | 0.00 | 0.00 | 67 | 1008.1 |
| 20260509000108 | 20 | 120 | 6.4 | 6.4 | 0.00 | 0.00 | 0.00 | 65 | 1008.2 |
| 20260508235606 | 20 | 239 | 3.2 | 4.8 | 0.00 | 0.00 | 0.00 | 63 | 1008.0 |
| 20260508235102 | 20 | 202 | 4.8 | 6.4 | 0.00 | 0.00 | 0.00 | 62 | 1007.8 |
| 20260508234559 | 20 | 194 | 6.4 | 9.7 | 0.00 | 0.00 | 0.00 | 61 | 1007.3 |
| 20260508234056 | 20 | 182 | 6.4 | 6.4 | 0.00 | 0.00 | 0.00 | 62 | 1007.5 |
| 20260508233555 | 20 | 71 | 3.2 | 4.8 | 0.00 | 0.00 | 0.00 | 63 | 1007.2 |
| 20260508233052 | 20 | 108 | 6.4 | 9.7 | 0.00 | 0.00 | 0.00 | 62 | 1007.1 |
| 20260508232549 | 20 | 176 | 6.4 | 9.7 | 0.00 | 0.00 | 0.00 | 63 | 1007.0 |
| 20260508232046 | 20 | 67 | 3.2 | 4.8 | 0.00 | 0.00 | 0.00 | 63 | 1007.0 |
| 20260508231544 | 20 | 183 | 6.4 | 9.7 | 0.00 | 0.00 | 0.00 | 63 | 1007.0 |
| 20260508231041 | 20 | 222 | 6.4 | 9.7 | 0.00 | 0.00 | 0.00 | 64 | 1007.6 |
| 20260508230537 | 20 | 152 | 6.4 | 6.4 | 0.00 | 0.00 | 0.00 | 64 | 1007.8 |
| 20260508230034 | 20 | 112 | 4.8 | 4.8 | 0.00 | 0.00 | 0.00 | 65 | 1007.9 |
| 20260508225531 | 20 | 168 | 3.2 | 4.8 | 0.00 | 0.00 | 0.00 | 66 | 1007.9 |
| 20260508225028 | 20 | 246 | 6.4 | 6.4 | 0.00 | 0.00 | 0.00 | 64 | 1008.0 |
| 20260508224526 | 20 | 176 | 6.4 | 6.4 | 0.00 | 0.00 | 0.00 | 65 | 1008.2 |
| 20260508224023 | 20 | 179 | 6.4 | 9.7 | 0.00 | 0.00 | 0.00 | 66 | 1008.2 |
| 20260508223521 | 20 | 193 | 4.8 | 6.4 | 0.00 | 0.00 | 0.00 | 65 | 1008.7 |
| 20260508223018 | 20 | 178 | 3.2 | 3.2 | 0.00 | 0.00 | 0.00 | 65 | 1008.9 |
| 20260508222515 | 20 | 255 | 3.2 | 3.2 | 0.00 | 0.00 | 0.00 | 65 | 1009.2 |
| 20260508222012 | 20 | 219 | 3.2 | 4.8 | 0.00 | 0.00 | 0.00 | 64 | 1009.0 |
| 20260508221508 | 20 | 276 | 4.8 | 4.8 | 0.00 | 0.00 | 0.00 | 62 | 1009.1 |
| 20260508221004 | 21 | 264 | 4.8 | 4.8 | 0.00 | 0.00 | 0.00 | 61 | 1009.3 |
| 20260508220500 | 21 | 335 | 3.2 | 4.8 | 0.00 | 0.00 | 0.00 | 61 | 1009.5 |
| 20260508215956 | 21 | 311 | 4.8 | 6.4 | 0.00 | 0.00 | 0.00 | 59 | 1009.4 |
| 20260508215454 | 22 | 98 | 6.4 | 6.4 | 0.00 | 0.00 | 0.00 | 58 | 1009.4 |
| 20260508214950 | 22 | 241 | 3.2 | 3.2 | 0.00 | 0.00 | 0.00 | 56 | 1009.6 |
| 20260508214448 | 22 | 336 | 3.2 | 3.2 | 0.00 | 0.00 | 0.00 | 53 | 1009.3 |
| 20260508213944 | 23 | 356 | 1.6 | 1.6 | 0.00 | 0.00 | 0.00 | 52 | 1009.0 |
| 20260508213442 | 23 | 26 | 0.0 | 0.0 | 0.00 | 0.00 | 0.00 | 51 | 1009.1 |
| 20260508212937 | 23 | 5 | 0.0 | 0.0 | 0.00 | 0.00 | 0.00 | 50 | 1009.0 |
| 20260508212434 | 23 | 6 | 0.0 | 1.6 | 0.00 | 0.00 | 0.00 | 49 | 1009.3 |
| 20260508211930 | 23 | 2 | 3.2 | 3.2 | 0.00 | 0.00 | 0.00 | 47 | 1009.2 |
| 20260508211425 | 23 | 301 | 4.8 | 6.4 | 0.00 | 0.00 | 0.00 | 45 | 1009.2 |
| 20260508210923 | 23 | 281 | 3.2 | 4.8 | 0.00 | 0.00 | 0.00 | 43 | 1009.1 |
| 20260508210419 | 23 | 186 | 8.0 | 11.3 | 0.00 | 0.00 | 0.00 | 43 | 1009.1 |
| 20260508205915 | 23 | 253 | 6.4 | 9.7 | 0.00 | 0.00 | 0.00 | 45 | 1008.9 |
| 20260508205413 | 23 | 200 | 12.9 | 16.1 | 0.00 | 0.00 | 0.00 | 43 | 1008.7 |
| 20260508204909 | 23 | 131 | 6.4 | 6.4 | 0.00 | 0.00 | 0.00 | 44 | 1009.0 |
| 20260508204407 | 24 | 165 | 3.2 | 4.8 | 0.00 | 0.00 | 0.00 | 44 | 1008.9 |
| 20260508203902 | 24 | 258 | 9.7 | 16.1 | 0.00 | 0.00 | 0.00 | 43 | 1009.1 |
| 20260508203358 | 25 | 24 | 3.2 | 4.8 | 0.00 | 0.00 | 0.00 | 42 | 1008.9 |
| 20260508202854 | 25 | 209 | 4.8 | 6.4 | 0.00 | 0.00 | 0.00 | 43 | 1009.1 |
| 20260508202351 | 25 | 213 | 8.0 | 11.3 | 0.00 | 0.00 | 0.00 | 42 | 1009.0 |
| 20260508201849 | 25 | 117 | 4.8 | 6.4 | 0.00 | 0.00 | 0.00 | 42 | 1009.2 |
| 20260508201345 | 25 | 203 | 4.8 | 4.8 | 0.00 | 0.00 | 0.00 | 41 | 1009.4 |
| 20260508200842 | 25 | 215 | 11.3 | 12.9 | 0.00 | 0.00 | 0.00 | 40 | 1009.3 |
| 20260508200339 | 26 | 171 | 9.7 | 12.9 | 0.00 | 0.00 | 0.00 | 38 | 1009.4 |
| 20260508195834 | 25 | 194 | 1.6 | 3.2 | 0.00 | 0.00 | 0.00 | 42 | 1009.2 |
| 20260508195331 | 26 | 194 | 8.0 | 11.3 | 0.00 | 0.00 | 0.00 | 40 | 1009.3 |
| 20260508194827 | 26 | 244 | 6.4 | 6.4 | 0.00 | 0.00 | 0.00 | 40 | 1009.6 |
| 20260508194325 | 26 | 141 | 9.7 | 12.9 | 0.00 | 0.00 | 0.00 | 38 | 1009.6 |
| 20260508193821 | 25 | 202 | 3.2 | 9.7 | 0.00 | 0.00 | 0.00 | 41 | 1009.6 |
| 20260508193319 | 25 | 217 | 9.7 | 16.1 | 0.00 | 0.00 | 0.00 | 40 | 1010.1 |
| 20260508192814 | 25 | 201 | 6.4 | 11.3 | 0.00 | 0.00 | 0.00 | 39 | 1009.7 |
| 20260508192312 | 25 | 210 | 9.7 | 12.9 | 0.00 | 0.00 | 0.00 | 40 | 1009.8 |
| 20260508191809 | 25 | 198 | 14.5 | 16.1 | 0.00 | 0.00 | 0.00 | 39 | 1009.8 |
| 20260508191306 | 25 | 241 | 6.4 | 9.7 | 0.00 | 0.00 | 0.00 | 40 | 1009.8 |
| 20260508190803 | 25 | 190 | 9.7 | 12.9 | 0.00 | 0.00 | 0.00 | 40 | 1010.0 |
| 20260508190259 | 25 | 266 | 8.0 | 12.9 | 0.00 | 0.00 | 0.00 | 41 | 1010.0 |
| 20260508185756 | 25 | 274 | 3.2 | 9.7 | 0.00 | 0.00 | 0.00 | 43 | 1010.1 |
| 20260508185253 | 25 | 213 | 3.2 | 4.8 | 0.00 | 0.00 | 0.00 | 42 | 1010.3 |
| 20260508184750 | 25 | 94 | 6.4 | 11.3 | 0.00 | 0.00 | 0.00 | 43 | 1010.4 |
| 20260508184248 | 25 | 35 | 4.8 | 9.7 | 0.00 | 0.00 | 0.00 | 42 | 1010.3 |
| 20260508183744 | 24 | 312 | 8.0 | 11.3 | 0.00 | 0.00 | 0.00 | 42 | 1010.3 |
| 20260508183241 | 24 | 226 | 8.0 | 11.3 | 0.00 | 0.00 | 0.00 | 43 | 1010.3 |
| 20260508182737 | 25 | 224 | 9.7 | 12.9 | 0.00 | 0.00 | 0.00 | 41 | 1010.4 |
| 20260508182234 | 25 | 195 | 9.7 | 12.9 | 0.00 | 0.00 | 0.00 | 41 | 1010.7 |
| 20260508181729 | 24 | 288 | 6.4 | 11.3 | 0.00 | 0.00 | 0.00 | 44 | 1010.6 |
| 20260508181227 | 24 | 225 | 16.1 | 20.9 | 0.00 | 0.00 | 0.00 | 42 | 1010.9 |
| 20260508180723 | 24 | 172 | 16.1 | 20.9 | 0.00 | 0.00 | 0.00 | 43 | 1011.0 |
| 20260508180220 | 24 | 271 | 9.7 | 14.5 | 0.00 | 0.00 | 0.00 | 44 | 1011.1 |
| 20260508175717 | 25 | 169 | 11.3 | 14.5 | 0.00 | 0.00 | 0.00 | 43 | 1011.0 |
| 20260508175213 | 24 | 204 | 11.3 | 12.9 | 0.00 | 0.00 | 0.00 | 43 | 1011.0 |
| 20260508174712 | 23 | 359 | 4.8 | 6.4 | 0.00 | 0.00 | 0.00 | 44 | 1011.0 |
| 20260508174208 | 23 | 212 | 6.4 | 9.7 | 0.00 | 0.00 | 0.00 | 44 | 1011.0 |
| 20260508173704 | 23 | 207 | 9.7 | 14.5 | 0.00 | 0.00 | 0.00 | 45 | 1010.9 |
| 20260508173200 | 23 | 181 | 12.9 | 14.5 | 0.00 | 0.00 | 0.00 | 44 | 1011.2 |
| 20260508172658 | 23 | 197 | 9.7 | 11.3 | 0.00 | 0.00 | 0.00 | 45 | 1011.3 |
| 20260508172155 | 23 | 204 | 8.0 | 9.7 | 0.00 | 0.00 | 0.00 | 46 | 1011.2 |
| 20260508171651 | 22 | 102 | 8.0 | 9.7 | 0.00 | 0.00 | 0.00 | 48 | 1011.3 |
| 20260508171147 | 23 | 208 | 16.1 | 17.7 | 0.00 | 0.00 | 0.00 | 46 | 1011.4 |
| 20260508170644 | 22 | 30 | 6.4 | 11.3 | 0.00 | 0.00 | 0.00 | 49 | 1011.7 |
| 20260508170142 | 22 | 167 | 3.2 | 6.4 | 0.00 | 0.00 | 0.00 | 50 | 1011.6 |
| 20260508165639 | 22 | 179 | 12.9 | 17.7 | 0.00 | 0.00 | 0.00 | 49 | 1011.9 |
| 20260508165136 | 22 | 193 | 11.3 | 14.5 | 0.00 | 0.00 | 0.00 | 50 | 1011.9 |
| 20260508164632 | 22 | 358 | 3.2 | 6.4 | 0.00 | 0.00 | 0.00 | 51 | 1012.0 |
| 20260508164129 | 22 | 219 | 8.0 | 16.1 | 0.00 | 0.00 | 0.00 | 52 | 1012.1 |
| 20260508163627 | 22 | 101 | 4.8 | 6.4 | 0.00 | 0.00 | 0.00 | 51 | 1012.1 |
| 20260508163124 | 21 | 196 | 6.4 | 6.4 | 0.00 | 0.00 | 0.00 | 54 | 1012.1 |
| 20260508162620 | 21 | 223 | 9.7 | 11.3 | 0.00 | 0.00 | 0.00 | 52 | 1012.3 |
| 20260508162118 | 21 | 146 | 11.3 | 14.5 | 0.00 | 0.00 | 0.00 | 54 | 1012.3 |
| 20260508161614 | 21 | 189 | 9.7 | 14.5 | 0.00 | 0.00 | 0.00 | 55 | 1012.7 |
| 20260508161112 | 21 | 181 | 16.1 | 22.5 | 0.00 | 0.00 | 0.00 | 54 | 1012.6 |
| 20260508160610 | 21 | 221 | 12.9 | 24.1 | 0.00 | 0.00 | 0.00 | 55 | 1012.5 |
| 20260508160107 | 20 | 174 | 12.9 | 25.7 | 0.00 | 0.00 | 0.00 | 56 | 1012.7 |
| 20260508155604 | 20 | 208 | 8.0 | 12.9 | 0.00 | 0.00 | 0.00 | 57 | 1012.8 |
| 20260508155101 | 20 | 210 | 9.7 | 12.9 | 0.00 | 0.00 | 0.00 | 57 | 1012.8 |
| 20260508154558 | 20 | 285 | 8.0 | 11.3 | 0.00 | 0.00 | 0.00 | 58 | 1013.1 |
| 20260508154055 | 20 | 203 | 4.8 | 6.4 | 0.00 | 0.00 | 0.00 | 60 | 1013.1 |
| 20260508153551 | 20 | 136 | 8.0 | 11.3 | 0.00 | 0.00 | 0.00 | 59 | 1013.1 |
| 20260508153047 | 19 | 113 | 9.7 | 12.9 | 0.00 | 0.00 | 0.00 | 61 | 1013.1 |
| 20260508152545 | 20 | 194 | 14.5 | 17.7 | 0.00 | 0.00 | 0.00 | 59 | 1013.2 |
| 20260508152040 | 19 | 184 | 4.8 | 6.4 | 0.00 | 0.00 | 0.00 | 61 | 1013.3 |
| 20260508151537 | 19 | 136 | 12.9 | 22.5 | 0.00 | 0.00 | 0.00 | 61 | 1013.3 |
| 20260508151034 | 19 | 126 | 9.7 | 14.5 | 0.00 | 0.00 | 0.00 | 59 | 1013.4 |
| 20260508150531 | 19 | 219 | 11.3 | 14.5 | 0.00 | 0.00 | 0.00 | 60 | 1013.3 |
| 20260508150027 | 19 | 199 | 9.7 | 11.3 | 0.00 | 0.00 | 0.00 | 60 | 1013.4 |
| 20260508145524 | 18 | 223 | 11.3 | 16.1 | 0.00 | 0.00 | 0.00 | 60 | 1013.5 |
| 20260508145020 | 18 | 210 | 12.9 | 16.1 | 0.00 | 0.00 | 0.00 | 61 | 1013.3 |
| 20260508144518 | 18 | 236 | 4.8 | 9.7 | 0.00 | 0.00 | 0.00 | 63 | 1013.3 |
| 20260508144015 | 18 | 208 | 8.0 | 11.3 | 0.00 | 0.00 | 0.00 | 63 | 1013.3 |
| 20260508143513 | 18 | 215 | 6.4 | 11.3 | 0.00 | 0.00 | 0.00 | 64 | 1013.3 |
| 20260508143009 | 18 | 142 | 11.3 | 17.7 | 0.00 | 0.00 | 0.00 | 63 | 1013.3 |
| 20260508142506 | 18 | 195 | 6.4 | 6.4 | 0.00 | 0.00 | 0.00 | 64 | 1013.5 |
| 20260508142003 | 17 | 2 | 6.4 | 11.3 | 0.00 | 0.00 | 0.00 | 65 | 1013.7 |
| 20260508141459 | 17 | 185 | 3.2 | 4.8 | 0.00 | 0.00 | 0.00 | 66 | 1013.8 |
| 20260508140957 | 17 | 190 | 4.8 | 6.4 | 0.00 | 0.00 | 0.00 | 66 | 1013.8 |
| 20260508140454 | 17 | 161 | 4.8 | 6.4 | 0.00 | 0.00 | 0.00 | 67 | 1013.7 |
| 20260508135949 | 16 | 253 | 6.4 | 9.7 | 0.00 | 0.00 | 0.00 | 68 | 1014.0 |
| 20260508135446 | 16 | 208 | 14.5 | 22.5 | 0.00 | 0.00 | 0.00 | 68 | 1014.2 |
| 20260508134942 | 16 | 245 | 9.7 | 12.9 | 0.00 | 0.00 | 0.00 | 69 | 1013.9 |
| 20260508134439 | 16 | 158 | 6.4 | 6.4 | 0.00 | 0.00 | 0.00 | 69 | 1014.1 |
| 20260508133936 | 16 | 273 | 9.7 | 16.1 | 0.00 | 0.00 | 0.00 | 69 | 1014.0 |
| 20260508133434 | 15 | 235 | 9.7 | 14.5 | 0.00 | 0.00 | 0.00 | 69 | 1014.1 |
| 20260508132930 | 15 | 220 | 12.9 | 14.5 | 0.00 | 0.00 | 0.00 | 69 | 1014.2 |
| 20260508132428 | 15 | 175 | 6.4 | 12.9 | 0.00 | 0.00 | 0.00 | 69 | 1014.1 |
| 20260508131925 | 15 | 111 | 12.9 | 16.1 | 0.00 | 0.00 | 0.00 | 69 | 1014.0 |
| 20260508131420 | 15 | 195 | 8.0 | 14.5 | 0.00 | 0.00 | 0.00 | 69 | 1014.1 |
| 20260508130917 | 15 | 42 | 6.4 | 11.3 | 0.00 | 0.00 | 0.00 | 70 | 1014.0 |
| 20260508130414 | 15 | 190 | 8.0 | 11.3 | 0.00 | 0.00 | 0.00 | 69 | 1013.8 |
| 20260508125910 | 15 | 189 | 4.8 | 6.4 | 0.00 | 0.00 | 0.00 | 69 | 1013.7 |
| 20260508125406 | 15 | 201 | 12.9 | 16.1 | 0.00 | 0.00 | 0.00 | 69 | 1013.9 |
| 20260508124904 | 15 | 180 | 12.9 | 14.5 | 0.00 | 0.00 | 0.00 | 69 | 1014.0 |
| 20260508124401 | 14 | 211 | 6.4 | 9.7 | 0.00 | 0.00 | 0.00 | 69 | 1013.8 |
| 20260508123859 | 14 | 197 | 4.8 | 6.4 | 0.00 | 0.00 | 0.00 | 69 | 1013.8 |
| 20260508123357 | 14 | 202 | 3.2 | 4.8 | 0.00 | 0.00 | 0.00 | 70 | 1013.7 |
| 20260508122853 | 13 | 192 | 6.4 | 9.7 | 0.00 | 0.00 | 0.00 | 70 | 1013.5 |
| 20260508122350 | 13 | 111 | 8.0 | 11.3 | 0.00 | 0.00 | 0.00 | 69 | 1013.4 |
| 20260508121848 | 13 | 201 | 16.1 | 22.5 | 0.00 | 0.00 | 0.00 | 69 | 1013.6 |
| 20260508121346 | 13 | 179 | 4.8 | 9.7 | 0.00 | 0.00 | 0.00 | 69 | 1013.4 |
| 20260508120843 | 13 | 168 | 1.6 | 3.2 | 0.00 | 0.00 | 0.00 | 68 | 1013.6 |
| 20260508120341 | 13 | 179 | 17.7 | 20.9 | 0.00 | 0.00 | 0.00 | 68 | 1013.7 |
| 20260508115838 | 13 | 204 | 9.7 | 12.9 | 0.00 | 0.00 | 0.00 | 67 | 1013.4 |
| 20260508115335 | 13 | 182 | 6.4 | 12.9 | 0.00 | 0.00 | 0.00 | 66 | 1013.5 |
| 20260508114832 | 13 | 172 | 9.7 | 12.9 | 0.00 | 0.00 | 0.00 | 66 | 1013.5 |
| 20260508114329 | 13 | 206 | 11.3 | 16.1 | 0.00 | 0.00 | 0.00 | 65 | 1013.1 |
| 20260508113826 | 13 | 202 | 6.4 | 9.7 | 0.00 | 0.00 | 0.00 | 64 | 1013.0 |
| 20260508113324 | 13 | 195 | 9.7 | 11.3 | 0.00 | 0.00 | 0.00 | 64 | 1013.0 |
| 20260508112820 | 13 | 93 | 8.0 | 9.7 | 0.00 | 0.00 | 0.00 | 63 | 1013.0 |
| 20260508112317 | 13 | 208 | 6.4 | 6.4 | 0.00 | 0.00 | 0.00 | 63 | 1012.7 |
| 20260508111813 | 13 | 186 | 8.0 | 12.9 | 0.00 | 0.00 | 0.00 | 63 | 1012.7 |
| 20260508111311 | 13 | 152 | 9.7 | 12.9 | 0.00 | 0.00 | 0.00 | 63 | 1012.8 |
| 20260508110808 | 13 | 192 | 11.3 | 14.5 | 0.00 | 0.00 | 0.00 | 63 | 1012.8 |
| 20260508110306 | 13 | 173 | 11.3 | 14.5 | 0.00 | 0.00 | 0.00 | 64 | 1012.7 |
| 20260508105805 | 13 | 178 | 8.0 | 11.3 | 0.00 | 0.00 | 0.00 | 64 | 1012.6 |
| 20260508105305 | 13 | 188 | 9.7 | 11.3 | 0.00 | 0.00 | 0.00 | 64 | 1012.6 |
| 20260508104759 | 13 | 161 | 9.7 | 11.3 | 0.00 | 0.00 | 0.00 | 64 | 1012.7 |
| 20260508104256 | 13 | 178 | 8.0 | 11.3 | 0.00 | 0.00 | 0.00 | 64 | 1012.5 |
| 20260508103753 | 13 | 193 | 9.7 | 11.3 | 0.00 | 0.00 | 0.00 | 63 | 1012.7 |
| 20260508103250 | 13 | 165 | 6.4 | 9.7 | 0.00 | 0.00 | 0.00 | 63 | 1012.6 |
| 20260508102747 | 13 | 70 | 9.7 | 11.3 | 0.00 | 0.00 | 0.00 | 63 | 1012.6 |
| 20260508102246 | 13 | 194 | 3.2 | 4.8 | 0.00 | 0.00 | 0.00 | 62 | 1012.6 |
| 20260508101742 | 13 | 207 | 6.4 | 9.7 | 0.00 | 0.00 | 0.00 | 62 | 1012.6 |
| 20260508101240 | 13 | 189 | 9.7 | 12.9 | 0.00 | 0.00 | 0.00 | 62 | 1012.6 |
| 20260508100738 | 14 | 175 | 9.7 | 12.9 | 0.00 | 0.00 | 0.00 | 61 | 1012.5 |
| 20260508100235 | 13 | 182 | 12.9 | 16.1 | 0.00 | 0.00 | 0.00 | 61 | 1012.5 |
| 20260508095731 | 13 | 150 | 6.4 | 6.4 | 0.00 | 0.00 | 0.00 | 61 | 1012.7 |
| 20260508095229 | 13 | 112 | 3.2 | 3.2 | 0.00 | 0.00 | 0.00 | 61 | 1012.7 |
| 20260508094725 | 14 | 154 | 4.8 | 6.4 | 0.00 | 0.00 | 0.00 | 61 | 1012.7 |
| 20260508094222 | 14 | 239 | 8.0 | 11.3 | 0.00 | 0.00 | 0.00 | 61 | 1012.6 |
| 20260508093720 | 14 | 213 | 8.0 | 11.3 | 0.00 | 0.00 | 0.00 | 60 | 1012.8 |
| 20260508093217 | 14 | 158 | 3.2 | 4.8 | 0.00 | 0.00 | 0.00 | 60 | 1012.7 |
| 20260508092714 | 14 | 140 | 3.2 | 4.8 | 0.00 | 0.00 | 0.00 | 60 | 1012.6 |
| 20260508092212 | 14 | 213 | 6.4 | 9.7 | 0.00 | 0.00 | 0.00 | 60 | 1012.6 |
| 20260508091710 | 14 | 231 | 6.4 | 9.7 | 0.00 | 0.00 | 0.00 | 60 | 1012.7 |
| 20260508091207 | 14 | 151 | 4.8 | 6.4 | 0.00 | 0.00 | 0.00 | 60 | 1012.5 |
| 20260508090704 | 14 | 184 | 9.7 | 12.9 | 0.00 | 0.00 | 0.00 | 60 | 1012.5 |
| 20260508090202 | 14 | 163 | 6.4 | 6.4 | 0.00 | 0.00 | 0.00 | 60 | 1012.6 |
| 20260508085657 | 14 | 150 | 6.4 | 6.4 | 0.00 | 0.00 | 0.00 | 60 | 1012.5 |
| 20260508085155 | 14 | 211 | 9.7 | 12.9 | 0.00 | 0.00 | 0.00 | 59 | 1012.6 |
| 20260508084651 | 14 | 142 | 3.2 | 4.8 | 0.00 | 0.00 | 0.00 | 59 | 1012.8 |
| 20260508084148 | 14 | 222 | 4.8 | 4.8 | 0.00 | 0.00 | 0.00 | 59 | 1012.8 |
| 20260508083646 | 14 | 190 | 9.7 | 14.5 | 0.00 | 0.00 | 0.00 | 59 | 1012.7 |
| 20260508083143 | 14 | 166 | 3.2 | 3.2 | 0.00 | 0.00 | 0.00 | 59 | 1012.7 |
| 20260508082638 | 14 | 180 | 3.2 | 4.8 | 0.00 | 0.00 | 0.00 | 60 | 1012.9 |
| 20260508082136 | 14 | 187 | 9.7 | 11.3 | 0.00 | 0.00 | 0.00 | 60 | 1013.0 |
| 20260508081633 | 14 | 184 | 4.8 | 4.8 | 0.00 | 0.00 | 0.00 | 60 | 1012.9 |
| 20260508081129 | 14 | 216 | 6.4 | 6.4 | 0.00 | 0.00 | 0.00 | 60 | 1013.0 |
| 20260508080627 | 14 | 181 | 9.7 | 12.9 | 0.00 | 0.00 | 0.00 | 60 | 1013.1 |
| 20260508080125 | 13 | 236 | 6.4 | 6.4 | 0.00 | 0.00 | 0.00 | 60 | 1013.1 |
| 20260508075621 | 13 | 138 | 4.8 | 6.4 | 0.00 | 0.00 | 0.00 | 61 | 1013.3 |
| 20260508075118 | 13 | 167 | 6.4 | 11.3 | 0.00 | 0.00 | 0.00 | 61 | 1013.1 |
| 20260508074616 | 13 | 191 | 9.7 | 14.5 | 0.00 | 0.00 | 0.00 | 61 | 1013.1 |
| 20260508074113 | 13 | 216 | 9.7 | 11.3 | 0.00 | 0.00 | 0.00 | 61 | 1013.2 |
| 20260508073610 | 13 | 200 | 6.4 | 6.4 | 0.00 | 0.00 | 0.00 | 61 | 1013.2 |
| 20260508073108 | 13 | 126 | 4.8 | 6.4 | 0.00 | 0.00 | 0.00 | 61 | 1013.3 |
| 20260508072603 | 13 | 188 | 8.0 | 11.3 | 0.00 | 0.00 | 0.00 | 61 | 1013.3 |
| 20260508072100 | 13 | 84 | 4.8 | 6.4 | 0.00 | 0.00 | 0.00 | 61 | 1013.5 |
| 20260508071558 | 13 | 162 | 6.4 | 6.4 | 0.00 | 0.00 | 0.00 | 61 | 1013.5 |
| 20260508071056 | 13 | 214 | 4.8 | 9.7 | 0.00 | 0.00 | 0.00 | 61 | 1013.5 |
| 20260508070553 | 13 | 195 | 6.4 | 6.4 | 0.00 | 0.00 | 0.00 | 61 | 1013.4 |
| 20260508070052 | 13 | 191 | 4.8 | 4.8 | 0.00 | 0.00 | 0.00 | 61 | 1013.5 |
| 20260508065549 | 13 | 191 | 3.2 | 3.2 | 0.00 | 0.00 | 0.00 | 62 | 1013.5 |
| 20260508065047 | 13 | 117 | 3.2 | 3.2 | 0.00 | 0.00 | 0.00 | 62 | 1013.7 |
| 20260508064544 | 13 | 131 | 4.8 | 6.4 | 0.00 | 0.00 | 0.00 | 62 | 1013.6 |
| 20260508064042 | 13 | 127 | 1.6 | 4.8 | 0.00 | 0.00 | 0.00 | 62 | 1013.7 |
| 20260508063539 | 13 | 136 | 9.7 | 12.9 | 0.00 | 0.00 | 0.00 | 63 | 1013.7 |
| 20260508063037 | 13 | 87 | 3.2 | 4.8 | 0.00 | 0.00 | 0.00 | 63 | 1013.6 |
| 20260508062534 | 13 | 153 | 6.4 | 6.4 | 0.00 | 0.00 | 0.00 | 63 | 1013.8 |
| 20260508062031 | 13 | 89 | 6.4 | 6.4 | 0.00 | 0.00 | 0.00 | 62 | 1013.8 |
| 20260508061529 | 13 | 181 | 4.8 | 6.4 | 0.00 | 0.00 | 0.00 | 62 | 1013.7 |
| 20260508061025 | 13 | 125 | 3.2 | 4.8 | 0.00 | 0.00 | 0.00 | 62 | 1013.7 |
| 20260508060522 | 13 | 51 | 4.8 | 6.4 | 0.00 | 0.00 | 0.00 | 62 | 1013.8 |
| 20260508060020 | 13 | 183 | 4.8 | 6.4 | 0.00 | 0.00 | 0.00 | 61 | 1013.8 |
| 20260508055515 | 14 | 206 | 8.0 | 9.7 | 0.00 | 0.00 | 0.00 | 61 | 1013.7 |
| 20260508055012 | 14 | 104 | 3.2 | 6.4 | 0.00 | 0.00 | 0.00 | 61 | 1013.7 |
| 20260508054509 | 14 | 95 | 3.2 | 4.8 | 0.00 | 0.00 | 0.00 | 60 | 1013.9 |
| 20260508054006 | 14 | 36 | 8.0 | 11.3 | 0.00 | 0.00 | 0.00 | 60 | 1013.8 |
| 20260508053502 | 14 | 54 | 1.6 | 3.2 | 0.00 | 0.00 | 0.00 | 60 | 1014.0 |
| 20260508053001 | 14 | 45 | 3.2 | 3.2 | 0.00 | 0.00 | 0.00 | 60 | 1014.0 |
| 20260508052458 | 14 | 200 | 3.2 | 3.2 | 0.00 | 0.00 | 0.00 | 59 | 1013.9 |
| 20260508051954 | 14 | 126 | 3.2 | 3.2 | 0.00 | 0.00 | 0.00 | 60 | 1014.1 |
| 20260508051449 | 14 | 198 | 3.2 | 3.2 | 0.00 | 0.00 | 0.00 | 60 | 1014.1 |
| 20260508050946 | 14 | 84 | 1.6 | 3.2 | 0.00 | 0.00 | 0.00 | 60 | 1014.0 |
| 20260508050442 | 14 | 180 | 6.4 | 6.4 | 0.00 | 0.00 | 0.00 | 60 | 1014.2 |
| 20260508045939 | 14 | 199 | 4.8 | 4.8 | 0.00 | 0.00 | 0.00 | 60 | 1014.2 |
| 20260508045436 | 14 | 43 | 1.6 | 3.2 | 0.00 | 0.00 | 0.00 | 60 | 1014.4 |
| 20260508044934 | 14 | 77 | 4.8 | 6.4 | 0.00 | 0.00 | 0.00 | 60 | 1014.1 |
| 20260508044431 | 14 | 55 | 3.2 | 3.2 | 0.00 | 0.00 | 0.00 | 61 | 1014.4 |
| 20260508043926 | 14 | 76 | 3.2 | 3.2 | 0.00 | 0.00 | 0.00 | 61 | 1014.4 |
| 20260508043424 | 14 | 53 | 1.6 | 3.2 | 0.00 | 0.00 | 0.00 | 61 | 1014.2 |
| 20260508042920 | 14 | 71 | 4.8 | 6.4 | 0.00 | 0.00 | 0.00 | 60 | 1014.5 |
| 20260508042418 | 14 | 187 | 3.2 | 4.8 | 0.00 | 0.00 | 0.00 | 60 | 1014.5 |
| 20260508041914 | 14 | 184 | 4.8 | 4.8 | 0.00 | 0.00 | 0.00 | 60 | 1014.6 |
| 20260508041411 | 15 | 45 | 1.6 | 3.2 | 0.00 | 0.00 | 0.00 | 60 | 1014.5 |
| 20260508040907 | 14 | 74 | 1.6 | 3.2 | 0.00 | 0.00 | 0.00 | 60 | 1014.7 |
| 20260508040405 | 14 | 169 | 4.8 | 4.8 | 0.00 | 0.00 | 0.00 | 60 | 1014.7 |
| 20260508035903 | 14 | 172 | 6.4 | 6.4 | 0.00 | 0.00 | 0.00 | 60 | 1014.6 |
| 20260508035359 | 15 | 193 | 3.2 | 3.2 | 0.00 | 0.00 | 0.00 | 60 | 1014.6 |
| 20260508034856 | 15 | 66 | 1.6 | 3.2 | 0.00 | 0.00 | 0.00 | 60 | 1015.0 |
| 20260508034354 | 15 | 64 | 1.6 | 3.2 | 0.00 | 0.00 | 0.00 | 60 | 1014.8 |
| 20260508033850 | 15 | 41 | 1.6 | 1.6 | 0.00 | 0.00 | 0.00 | 60 | 1014.9 |
| 20260508033348 | 15 | 106 | 3.2 | 4.8 | 0.00 | 0.00 | 0.00 | 59 | 1014.9 |
| 20260508032846 | 15 | 102 | 3.2 | 4.8 | 0.00 | 0.00 | 0.00 | 59 | 1014.9 |
| 20260508032343 | 15 | 196 | 3.2 | 6.4 | 0.00 | 0.00 | 0.00 | 58 | 1015.1 |
| 20260508031839 | 15 | 162 | 6.4 | 12.9 | 0.00 | 0.00 | 0.00 | 59 | 1015.0 |
| 20260508031336 | 15 | 67 | 1.6 | 3.2 | 0.00 | 0.00 | 0.00 | 59 | 1015.1 |
| 20260508030832 | 15 | 87 | 4.8 | 6.4 | 0.00 | 0.00 | 0.00 | 59 | 1015.0 |
| 20260508030330 | 15 | 62 | 1.6 | 1.6 | 0.00 | 0.00 | 0.00 | 58 | 1015.0 |
| 20260508025826 | 15 | 98 | 3.2 | 3.2 | 0.00 | 0.00 | 0.00 | 58 | 1015.2 |
| 20260508025324 | 15 | 176 | 3.2 | 3.2 | 0.00 | 0.00 | 0.00 | 58 | 1014.9 |
| 20260508024820 | 15 | 151 | 6.4 | 6.4 | 0.00 | 0.00 | 0.00 | 58 | 1015.0 |
| 20260508024317 | 15 | 158 | 3.2 | 4.8 | 0.00 | 0.00 | 0.00 | 58 | 1014.9 |
| 20260508023814 | 15 | 22 | 1.6 | 3.2 | 0.00 | 0.00 | 0.00 | 58 | 1014.9 |
| 20260508023310 | 15 | 31 | 0.0 | 1.6 | 0.00 | 0.00 | 0.00 | 58 | 1014.9 |
| 20260508022807 | 15 | 53 | 1.6 | 1.6 | 0.00 | 0.00 | 0.00 | 58 | 1015.0 |
| 20260508022306 | 15 | 55 | 3.2 | 4.8 | 0.00 | 0.00 | 0.00 | 58 | 1014.8 |
| 20260508021800 | 15 | 30 | 3.2 | 3.2 | 0.00 | 0.00 | 0.00 | 58 | 1014.8 |
| 20260508021256 | 15 | 85 | 1.6 | 1.6 | 0.00 | 0.00 | 0.00 | 58 | 1014.7 |
| 20260508020752 | 15 | 49 | 1.6 | 1.6 | 0.00 | 0.00 | 0.00 | 57 | 1014.5 |
| 20260508020251 | 16 | 42 | 0.0 | 0.0 | 0.00 | 0.00 | 0.00 | 57 | 1014.5 |
| 20260508015747 | 16 | 66 | 3.2 | 3.2 | 0.00 | 0.00 | 0.00 | 55 | 1014.4 |
| 20260508015244 | 16 | 292 | 1.6 | 3.2 | 0.00 | 0.00 | 0.00 | 55 | 1014.4 |
| 20260508014741 | 16 | 185 | 3.2 | 3.2 | 0.00 | 0.00 | 0.00 | 54 | 1014.2 |
| 20260508014238 | 16 | 14 | 1.6 | 3.2 | 0.00 | 0.00 | 0.00 | 54 | 1014.1 |
| 20260508013734 | 16 | 47 | 1.6 | 3.2 | 0.00 | 0.00 | 0.00 | 54 | 1014.1 |
| 20260508013230 | 16 | 55 | 0.0 | 1.6 | 0.00 | 0.00 | 0.00 | 54 | 1014.2 |
| 20260508012728 | 16 | 34 | 0.0 | 0.0 | 0.00 | 0.00 | 0.00 | 53 | 1014.1 |
| 20260508012225 | 17 | 289 | 3.2 | 4.8 | 0.00 | 0.00 | 0.00 | 52 | 1014.0 |
| 20260508011723 | 17 | 72 | 3.2 | 3.2 | 0.00 | 0.00 | 0.00 | 52 | 1014.0 |
| 20260508011220 | 17 | 210 | 3.2 | 3.2 | 0.00 | 0.00 | 0.00 | 51 | 1014.0 |
| 20260508010716 | 17 | 201 | 3.2 | 4.8 | 0.00 | 0.00 | 0.00 | 50 | 1013.9 |
| 20260508010215 | 17 | 193 | 3.2 | 4.8 | 0.00 | 0.00 | 0.00 | 49 | 1014.0 |
| 20260508005712 | 18 | 75 | 1.6 | 3.2 | 0.00 | 0.00 | 0.00 | 48 | 1013.8 |
| 20260508005208 | 18 | 134 | 3.2 | 4.8 | 0.00 | 0.00 | 0.00 | 48 | 1014.2 |
| 20260508004703 | 18 | 42 | 4.8 | 4.8 | 0.00 | 0.00 | 0.00 | 47 | 1014.0 |
| 20260508004200 | 18 | 25 | 1.6 | 3.2 | 0.00 | 0.00 | 0.00 | 46 | 1013.8 |
| 20260508003657 | 18 | 232 | 6.4 | 9.7 | 0.00 | 0.00 | 0.00 | 45 | 1014.1 |
| 20260508003154 | 18 | 143 | 6.4 | 9.7 | 0.00 | 0.00 | 0.00 | 44 | 1013.7 |
| 20260508002650 | 18 | 241 | 6.4 | 9.7 | 0.00 | 0.00 | 0.00 | 44 | 1013.9 |